Home > Products > Valid Products > TAF

000
FTUS43 KOAX 192340
TAFOMA
TAF
KOMA 192340Z 2000/2024 16008KT 4SM BR OVC010
     FM200800 17004KT 1 1/2SM BR OVC006
      TEMPO 2013/2015 3/4SM BR OVC004
     FM201600 16005KT 4SM BR OVC007
     FM201800 16006KT P6SM OVC012=



000
FTUS43 KOAX 192340
TAFOFK
TAF
KOFK 192340Z 2000/2024 18009KT 6SM BR OVC010
     FM200700 18003KT 4SM BR OVC006
      TEMPO 2012/2014 1SM BR OVC004
     FM201600 18006KT 5SM BR OVC008
     FM201800 18009KT P6SM OVC012=



000
FTUS43 KOAX 192340
TAFLNK
TAF
KLNK 192340Z 2000/2024 18008KT 6SM BR OVC012
     FM200400 18004KT 4SM BR OVC010
     FM200800 18005KT 2SM BR OVC007
      TEMPO 2012/2014 1SM BR OVC004
     FM201600 18004KT 4SM BR OVC006
     FM201800 19006KT P6SM OVC012=



000
FTUS43 KOAX 192340
TAFLNK
TAF
KLNK 192340Z 2000/2024 18008KT 6SM BR OVC012
     FM200400 18004KT 4SM BR OVC010
     FM200800 18005KT 2SM BR OVC007
      TEMPO 2012/2014 1SM BR OVC004
     FM201600 18004KT 4SM BR OVC006
     FM201800 19006KT P6SM OVC012=



000
FTUS43 KOAX 192340
TAFOMA
TAF
KOMA 192340Z 2000/2024 16008KT 4SM BR OVC010
     FM200800 17004KT 1 1/2SM BR OVC006
      TEMPO 2013/2015 3/4SM BR OVC004
     FM201600 16005KT 4SM BR OVC007
     FM201800 16006KT P6SM OVC012=



000
FTUS43 KOAX 192340
TAFOFK
TAF
KOFK 192340Z 2000/2024 18009KT 6SM BR OVC010
     FM200700 18003KT 4SM BR OVC006
      TEMPO 2012/2014 1SM BR OVC004
     FM201600 18006KT 5SM BR OVC008
     FM201800 18009KT P6SM OVC012=



000
FTUS43 KOAX 192203 AAA
TAFOMA
TAF AMD
KOMA 192203Z 1922/2018 17008KT 6SM -DZ BR OVC010
     FM201000 17006KT 1SM BR OVC005
     FM201700 16006KT P6SM OVC010=



000
FTUS43 KOAX 192200 AAA
TAFOFK
TAF AMD
KOFK 192200Z 1922/2018 18009KT P6SM OVC010
     FM201000 18003KT 1SM BR OVC005
     FM201700 18009KT P6SM OVC010=



000
FTUS43 KOAX 192200 AAA
TAFOFK
TAF AMD
KOFK 192200Z 1922/2018 18009KT P6SM OVC010
     FM201000 18003KT 1SM BR OVC005
     FM201700 18009KT P6SM OVC010=



000
FTUS43 KOAX 192149 AAA
TAFLNK
TAF AMD
KLNK 192149Z 1922/2018 18008KT 6SM BR OVC015
     FM192300 17006KT P6SM SCT250
     FM200400 18004KT 4SM BR OVC015
     FM201500 18004KT P6SM SCT250=



000
FTUS43 KOAX 192149 AAA
TAFLNK
TAF AMD
KLNK 192149Z 1922/2018 18008KT 6SM BR OVC015
     FM192300 17006KT P6SM SCT250
     FM200400 18004KT 4SM BR OVC015
     FM201500 18004KT P6SM SCT250=



000
FTUS43 KOAX 191726
TAFOFK
TAF
KOFK 191726Z 1918/2018 18010KT 6SM BR OVC010
     FM192100 18006KT P6SM SCT250
      TEMPO 2010/2014 1SM BR OVC015
     FM201400 18004KT P6SM SCT250=



000
FTUS43 KOAX 191726
TAFOMA
TAF
KOMA 191726Z 1918/2018 16009KT 4SM BR OVC025
      TEMPO 1918/1920 2SM BR OVC008
     FM192200 16006KT P6SM SCT250
     FM200800 17007KT 2SM BR OVC250
      TEMPO 2010/2014 1SM BR OVC015
     FM201600 16006KT P6SM SCT250=



000
FTUS43 KOAX 191726
TAFLNK
TAF
KLNK 191726Z 1918/2018 16008KT 6SM HZ OVC016
     FM192100 17006KT P6SM SCT250
     FM200400 18004KT 4SM BR OVC015
     FM201500 18004KT P6SM SCT250=



000
FTUS43 KOAX 191726
TAFLNK
TAF
KLNK 191726Z 1918/2018 16008KT 6SM HZ OVC016
     FM192100 17006KT P6SM SCT250
     FM200400 18004KT 4SM BR OVC015
     FM201500 18004KT P6SM SCT250=



000
FTUS43 KOAX 191726
TAFOMA
TAF
KOMA 191726Z 1918/2018 16009KT 4SM BR OVC025
      TEMPO 1918/1920 2SM BR OVC008
     FM192200 16006KT P6SM SCT250
     FM200800 17007KT 2SM BR OVC250
      TEMPO 2010/2014 1SM BR OVC015
     FM201600 16006KT P6SM SCT250=



000
FTUS43 KOAX 191726
TAFOFK
TAF
KOFK 191726Z 1918/2018 18010KT 6SM BR OVC010
     FM192100 18006KT P6SM SCT250
      TEMPO 2010/2014 1SM BR OVC015
     FM201400 18004KT P6SM SCT250=



000
FTUS43 KOAX 191605 AAB
TAFOMA
TAF AMD
KOMA 191605Z 1916/2012 16008KT 4SM BR OVC020
      TEMPO 1916/1918 2SM BR OVC007
     FM192100 16008KT P6SM OVC020
     FM200600 15005KT 4SM BR OVC004=



000
FTUS43 KOAX 191605 AAB
TAFOMA
TAF AMD
KOMA 191605Z 1916/2012 16008KT 4SM BR OVC020
      TEMPO 1916/1918 2SM BR OVC007
     FM192100 16008KT P6SM OVC020
     FM200600 15005KT 4SM BR OVC004=



000
FTUS43 KOAX 191605 AAB
TAFOMA
TAF AMD
KOMA 191605Z 1916/2012 16008KT 4SM BR OVC020
      TEMPO 1916/1918 2SM BR OVC007
     FM192100 16008KT P6SM OVC020
     FM200600 15005KT 4SM BR OVC004=



000
FTUS43 KOAX 191605 AAB
TAFOMA
TAF AMD
KOMA 191605Z 1916/2012 16008KT 4SM BR OVC020
      TEMPO 1916/1918 2SM BR OVC007
     FM192100 16008KT P6SM OVC020
     FM200600 15005KT 4SM BR OVC004=



000
FTUS43 KOAX 191603 AAA
TAFLNK
TAF AMD
KLNK 191603Z 1916/2012 18006KT 5SM BR OVC020
     FM192100 18009KT P6SM OVC020
     FM200600 17005KT 4SM BR OVC004=



000
FTUS43 KOAX 191603 AAA
TAFLNK
TAF AMD
KLNK 191603Z 1916/2012 18006KT 5SM BR OVC020
     FM192100 18009KT P6SM OVC020
     FM200600 17005KT 4SM BR OVC004=



000
FTUS43 KOAX 191603 AAA
TAFLNK
TAF AMD
KLNK 191603Z 1916/2012 18006KT 5SM BR OVC020
     FM192100 18009KT P6SM OVC020
     FM200600 17005KT 4SM BR OVC004=



000
FTUS43 KOAX 191602 AAA
TAFOMA
TAF AMD
KOMA 191602Z 1916/2012 16008KT 4SM BR OVC007
      TEMPO 1916/1918 2SM BR
     FM191800 17006KT P6SM OVC015
     FM192100 16008KT P6SM BKN020
     FM200600 15005KT 4SM BR OVC004=



000
FTUS43 KOAX 191602 AAA
TAFOMA
TAF AMD
KOMA 191602Z 1916/2012 16008KT 4SM BR OVC007
      TEMPO 1916/1918 2SM BR
     FM191800 17006KT P6SM OVC015
     FM192100 16008KT P6SM BKN020
     FM200600 15005KT 4SM BR OVC004=



000
FTUS43 KOAX 191329 AAA
TAFOFK
TAF AMD
KOFK 191329Z 1913/2012 18008KT P6SM OVC009
     FM192200 18009KT P6SM BKN025
     FM200600 18004KT 4SM BR OVC004=



000
FTUS43 KOAX 191329 AAA
TAFOFK
TAF AMD
KOFK 191329Z 1913/2012 18008KT P6SM OVC009
     FM192200 18009KT P6SM BKN025
     FM200600 18004KT 4SM BR OVC004=



000
FTUS43 KOAX 191120
TAFLNK
TAF
KLNK 191120Z 1912/2012 18006KT 5SM BR OVC022
      TEMPO 1912/1915 OVC015
     FM192100 18009KT P6SM BKN020
     FM200600 17005KT 4SM OVC004=



000
FTUS43 KOAX 191120
TAFLNK
TAF
KLNK 191120Z 1912/2012 18006KT 5SM BR OVC022
      TEMPO 1912/1915 OVC015
     FM192100 18009KT P6SM BKN020
     FM200600 17005KT 4SM OVC004=



000
FTUS43 KOAX 191120
TAFOFK
TAF
KOFK 191120Z 1912/2012 19008KT P6SM OVC015
     FM192200 18009KT P6SM BKN025
     FM200600 18004KT 4SM BR OVC004=



000
FTUS43 KOAX 191120
TAFOMA
TAF
KOMA 191120Z 1912/2012 16005KT P6SM OVC008
      TEMPO 1912/1916 4SM BR
     FM191700 17006KT P6SM OVC015
     FM192100 16008KT P6SM BKN020
     FM200600 15005KT 4SM BR OVC004=



000
FTUS43 KOAX 191120
TAFOMA
TAF
KOMA 191120Z 1912/2012 16005KT P6SM OVC008
      TEMPO 1912/1916 4SM BR
     FM191700 17006KT P6SM OVC015
     FM192100 16008KT P6SM BKN020
     FM200600 15005KT 4SM BR OVC004=



000
FTUS43 KOAX 191120
TAFOFK
TAF
KOFK 191120Z 1912/2012 19008KT P6SM OVC015
     FM192200 18009KT P6SM BKN025
     FM200600 18004KT 4SM BR OVC004=



000
FTUS43 KOAX 190525
TAFOMA
TAF
KOMA 190525Z 1906/2006 16007KT P6SM OVC012
      TEMPO 1908/1912 4SM BR OVC007
     FM191200 16006KT 4SM BR OVC007
     FM191700 17006KT P6SM OVC015
     FM192100 16008KT P6SM BKN020=



000
FTUS43 KOAX 190525
TAFOFK
TAF
KOFK 190525Z 1906/2006 18005KT P6SM OVC012
      TEMPO 1909/1913 3SM BR OVC007
     FM191600 19008KT P6SM OVC009
     FM191900 19011KT P6SM OVC015
     FM192200 18009KT P6SM BKN025=



000
FTUS43 KOAX 190525
TAFLNK
TAF
KLNK 190525Z 1906/2006 18006KT P6SM OVC010
      TEMPO 1907/1911 3SM BR OVC006
     FM191100 18005KT 3SM BR OVC007
     FM191700 18008KT P6SM OVC015
     FM192100 18009KT P6SM BKN020=



000
FTUS43 KOAX 190525
TAFOMA
TAF
KOMA 190525Z 1906/2006 16007KT P6SM OVC012
      TEMPO 1908/1912 4SM BR OVC007
     FM191200 16006KT 4SM BR OVC007
     FM191700 17006KT P6SM OVC015
     FM192100 16008KT P6SM BKN020=



000
FTUS43 KOAX 190525
TAFLNK
TAF
KLNK 190525Z 1906/2006 18006KT P6SM OVC010
      TEMPO 1907/1911 3SM BR OVC006
     FM191100 18005KT 3SM BR OVC007
     FM191700 18008KT P6SM OVC015
     FM192100 18009KT P6SM BKN020=



000
FTUS43 KOAX 190525
TAFOFK
TAF
KOFK 190525Z 1906/2006 18005KT P6SM OVC012
      TEMPO 1909/1913 3SM BR OVC007
     FM191600 19008KT P6SM OVC009
     FM191900 19011KT P6SM OVC015
     FM192200 18009KT P6SM BKN025=



000
FTUS43 KOAX 190247 AAA
TAFOMA
TAF AMD
KOMA 190247Z 1903/1924 16005KT P6SM OVC020
     FM190800 15005KT 6SM BR OVC015
      TEMPO 1908/1912 4SM BR OVC008
     FM191300 16005KT 3SM BR OVC007
     FM191700 16006KT 6SM HZ OVC015
     FM192000 17008KT P6SM BKN025=



000
FTUS43 KOAX 190247 AAA
TAFOMA
TAF AMD
KOMA 190247Z 1903/1924 16005KT P6SM OVC020
     FM190800 15005KT 6SM BR OVC015
      TEMPO 1908/1912 4SM BR OVC008
     FM191300 16005KT 3SM BR OVC007
     FM191700 16006KT 6SM HZ OVC015
     FM192000 17008KT P6SM BKN025=



000
FTUS43 KOAX 190246 AAA
TAFOFK
TAF AMD
KOFK 190246Z 1903/1924 18005KT P6SM OVC020
     FM190700 18005KT 6SM BR OVC012
      TEMPO 1910/1914 3SM BR OVC007
     FM191600 19008KT P6SM BKN015
     FM192000 19011KT P6SM BKN250=



000
FTUS43 KOAX 190246 AAA
TAFOFK
TAF AMD
KOFK 190246Z 1903/1924 18005KT P6SM OVC020
     FM190700 18005KT 6SM BR OVC012
      TEMPO 1910/1914 3SM BR OVC007
     FM191600 19008KT P6SM BKN015
     FM192000 19011KT P6SM BKN250=



000
FTUS43 KOAX 182320
TAFLNK
TAF
KLNK 182320Z 1900/1924 16004KT P6SM OVC015
     FM190800 16004KT 5SM BR OVC015
      TEMPO 1908/1912 2SM BR OVC007
     FM191300 18005KT 3SM BR OVC007
     FM191700 18007KT P6SM OVC015
     FM192000 18009KT P6SM BKN025=



000
FTUS43 KOAX 182320
TAFOMA
TAF
KOMA 182320Z 1900/1924 16005KT P6SM OVC015
     FM190800 15005KT 6SM BR OVC011
      TEMPO 1908/1912 4SM BR OVC008
     FM191300 16005KT 3SM BR OVC007
     FM191700 16006KT 6SM HZ OVC015
     FM192000 17008KT P6SM BKN025=



000
FTUS43 KOAX 182320
TAFOFK
TAF
KOFK 182320Z 1900/1924 19005KT P6SM OVC015
     FM190700 18005KT 6SM BR OVC011
      TEMPO 1910/1914 3SM BR OVC007
     FM191600 19008KT P6SM BKN015
     FM192000 19011KT P6SM BKN250=



000
FTUS43 KOAX 182320
TAFOMA
TAF
KOMA 182320Z 1900/1924 16005KT P6SM OVC015
     FM190800 15005KT 6SM BR OVC011
      TEMPO 1908/1912 4SM BR OVC008
     FM191300 16005KT 3SM BR OVC007
     FM191700 16006KT 6SM HZ OVC015
     FM192000 17008KT P6SM BKN025=



000
FTUS43 KOAX 182320
TAFOFK
TAF
KOFK 182320Z 1900/1924 19005KT P6SM OVC015
     FM190700 18005KT 6SM BR OVC011
      TEMPO 1910/1914 3SM BR OVC007
     FM191600 19008KT P6SM BKN015
     FM192000 19011KT P6SM BKN250=



000
FTUS43 KOAX 182320
TAFLNK
TAF
KLNK 182320Z 1900/1924 16004KT P6SM OVC015
     FM190800 16004KT 5SM BR OVC015
      TEMPO 1908/1912 2SM BR OVC007
     FM191300 18005KT 3SM BR OVC007
     FM191700 18007KT P6SM OVC015
     FM192000 18009KT P6SM BKN025=



000
FTUS43 KOAX 182226 AAA
TAFOMA
TAF AMD
KOMA 182226Z 1822/1918 13005KT P6SM OVC015
     FM190400 15005KT 6SM BR OVC011
      TEMPO 1906/1910 4SM BR OVC008
     FM191000 16005KT 3SM BR OVC007
     FM191700 16006KT 6SM HZ OVC015=



000
FTUS43 KOAX 182226 AAA
TAFOMA
TAF AMD
KOMA 182226Z 1822/1918 13005KT P6SM OVC015
     FM190400 15005KT 6SM BR OVC011
      TEMPO 1906/1910 4SM BR OVC008
     FM191000 16005KT 3SM BR OVC007
     FM191700 16006KT 6SM HZ OVC015=



000
FTUS43 KOAX 181728
TAFOFK
TAF
KOFK 181728Z 1818/1918 19006KT P6SM OVC015
      TEMPO 1910/1914 2SM BR
     FM191400 19005KT P6SM OVC050=



000
FTUS43 KOAX 181728
TAFLNK
TAF
KLNK 181728Z 1818/1918 16005KT P6SM OVC015
     FM190500 18005KT 3SM BR OVC015
      TEMPO 1910/1913 1/2SM FG OVC007
     FM191500 18003KT P6SM OVC015=



000
FTUS43 KOAX 181728
TAFOMA
TAF
KOMA 181728Z 1818/1918 16005KT P6SM OVC015
      TEMPO 1818/1820 5SM -SN BR
     FM190400 16005KT 4SM BR OVC007
     FM191000 16005KT 2SM BR OVC007
     FM191600 16006KT P6SM OVC015=



000
FTUS43 KOAX 181728
TAFLNK
TAF
KLNK 181728Z 1818/1918 16005KT P6SM OVC015
     FM190500 18005KT 3SM BR OVC015
      TEMPO 1910/1913 1/2SM FG OVC007
     FM191500 18003KT P6SM OVC015=



000
FTUS43 KOAX 181728
TAFOFK
TAF
KOFK 181728Z 1818/1918 19006KT P6SM OVC015
      TEMPO 1910/1914 2SM BR
     FM191400 19005KT P6SM OVC050=



000
FTUS43 KOAX 181728
TAFOMA
TAF
KOMA 181728Z 1818/1918 16005KT P6SM OVC015
      TEMPO 1818/1820 5SM -SN BR
     FM190400 16005KT 4SM BR OVC007
     FM191000 16005KT 2SM BR OVC007
     FM191600 16006KT P6SM OVC015=



000
FTUS43 KOAX 181515 AAA
TAFLNK
TAF AMD
KLNK 181515Z 1815/1912 09005KT 3SM -SN BKN010 OVC025
     FM181700 15003KT P6SM OVC015
     FM190800 17005KT 5SM BR OVC015=



000
FTUS43 KOAX 181515 AAA
TAFLNK
TAF AMD
KLNK 181515Z 1815/1912 09005KT 3SM -SN BKN010 OVC025
     FM181700 15003KT P6SM OVC015
     FM190800 17005KT 5SM BR OVC015=



000
FTUS43 KOAX 181514 AAB
TAFOMA
TAF AMD
KOMA 181514Z 1815/1912 12005KT 4SM -SN BR OVC045
     FM181800 14005KT P6SM OVC025
     FM190800 17005KT 5SM BR OVC015=



000
FTUS43 KOAX 181514 AAB
TAFOMA
TAF AMD
KOMA 181514Z 1815/1912 12005KT 4SM -SN BR OVC045
     FM181800 14005KT P6SM OVC025
     FM190800 17005KT 5SM BR OVC015=



000
FTUS43 KOAX 181349 AAA
TAFOMA
TAF AMD
KOMA 181349Z 1814/1912 12005KT 4SM -SN BR OVC045
     FM181500 14004KT P6SM SCT025 OVC040
     FM181800 14005KT P6SM OVC025
     FM190800 17005KT 5SM BR OVC015=



000
FTUS43 KOAX 181349 AAA
TAFOMA
TAF AMD
KOMA 181349Z 1814/1912 12005KT 4SM -SN BR OVC045
     FM181500 14004KT P6SM SCT025 OVC040
     FM181800 14005KT P6SM OVC025
     FM190800 17005KT 5SM BR OVC015=



000
FTUS43 KOAX 181349 AAA
TAFOMA
TAF AMD
KOMA 181349Z 1814/1912 12005KT 4SM -SN BR OVC045
     FM181500 14004KT P6SM SCT025 OVC040
     FM181800 14005KT P6SM OVC025
     FM190800 17005KT 5SM BR OVC015=



000
FTUS43 KOAX 181349 AAA
TAFOMA
TAF AMD
KOMA 181349Z 1814/1912 12005KT 4SM -SN BR OVC045
     FM181500 14004KT P6SM SCT025 OVC040
     FM181800 14005KT P6SM OVC025
     FM190800 17005KT 5SM BR OVC015=



000
FTUS43 KOAX 181346 AAA
TAFOFK
TAF AMD
KOFK 181346Z 1814/1912 VRB04KT P6SM SCT035 OVC060
     FM181600 16005KT P6SM OVC020
     FM190800 19006KT 5SM BR OVC011=



000
FTUS43 KOAX 181346 AAA
TAFOFK
TAF AMD
KOFK 181346Z 1814/1912 VRB04KT P6SM SCT035 OVC060
     FM181600 16005KT P6SM OVC020
     FM190800 19006KT 5SM BR OVC011=



000
FTUS43 KOAX 181346 AAA
TAFOFK
TAF AMD
KOFK 181346Z 1814/1912 VRB04KT P6SM SCT035 OVC060
     FM181600 16005KT P6SM OVC020
     FM190800 19006KT 5SM BR OVC011=



000
FTUS43 KOAX 181346 AAA
TAFOFK
TAF AMD
KOFK 181346Z 1814/1912 VRB04KT P6SM SCT035 OVC060
     FM181600 16005KT P6SM OVC020
     FM190800 19006KT 5SM BR OVC011=



000
FTUS43 KOAX 181124
TAFLNK
TAF
KLNK 181124Z 1812/1912 09005KT 3SM -SN SCT011 OVC025
      TEMPO 1812/1813 1 1/2SM -SN OVC025
     FM181500 15003KT P6SM OVC015
     FM190800 17005KT 5SM BR OVC015=



000
FTUS43 KOAX 181124
TAFOFK
TAF
KOFK 181124Z 1812/1912 13005KT 3SM -SN BR SCT015 OVC035
     FM181300 16005KT P6SM OVC020
     FM190800 19006KT 5SM BR OVC011=



000
FTUS43 KOAX 181124
TAFOMA
TAF
KOMA 181124Z 1812/1912 12005KT P6SM OVC050
      TEMPO 1812/1813 5SM -SN BKN045
     FM181300 11004KT 4SM -SN SCT025 OVC040
     FM181600 15004KT P6SM OVC020
     FM190800 17005KT 5SM BR OVC015=



000
FTUS43 KOAX 181124
TAFOFK
TAF
KOFK 181124Z 1812/1912 13005KT 3SM -SN BR SCT015 OVC035
     FM181300 16005KT P6SM OVC020
     FM190800 19006KT 5SM BR OVC011=



000
FTUS43 KOAX 181124
TAFLNK
TAF
KLNK 181124Z 1812/1912 09005KT 3SM -SN SCT011 OVC025
      TEMPO 1812/1813 1 1/2SM -SN OVC025
     FM181500 15003KT P6SM OVC015
     FM190800 17005KT 5SM BR OVC015=



000
FTUS43 KOAX 181124
TAFOMA
TAF
KOMA 181124Z 1812/1912 12005KT P6SM OVC050
      TEMPO 1812/1813 5SM -SN BKN045
     FM181300 11004KT 4SM -SN SCT025 OVC040
     FM181600 15004KT P6SM OVC020
     FM190800 17005KT 5SM BR OVC015=



000
FTUS43 KOAX 181017 AAB
TAFLNK
TAF AMD
KLNK 181017Z 1810/1906 11005KT 3SM -SN SCT025 OVC040
      TEMPO 1810/1812 1 1/2SM -SN OVC020
     FM181700 12005KT 6SM BR OVC015
     FM182000 18005KT P6SM OVC025=



000
FTUS43 KOAX 181017 AAB
TAFLNK
TAF AMD
KLNK 181017Z 1810/1906 11005KT 3SM -SN SCT025 OVC040
      TEMPO 1810/1812 1 1/2SM -SN OVC020
     FM181700 12005KT 6SM BR OVC015
     FM182000 18005KT P6SM OVC025=



000
FTUS43 KOAX 180940 AAA
TAFOFK
TAF AMD
KOFK 180940Z 1810/1906 13005KT P6SM OVC060
      TEMPO 1810/1812 4SM -SN BKN035
     FM181500 16005KT 3SM BR OVC015
     FM181900 19006KT P6SM OVC015=



000
FTUS43 KOAX 180940 AAA
TAFOFK
TAF AMD
KOFK 180940Z 1810/1906 13005KT P6SM OVC060
      TEMPO 1810/1812 4SM -SN BKN035
     FM181500 16005KT 3SM BR OVC015
     FM181900 19006KT P6SM OVC015=



000
FTUS43 KOAX 180939 AAA
TAFOMA
TAF AMD
KOMA 180939Z 1810/1906 10005KT P6SM OVC060
      TEMPO 1812/1814 5SM -SN BKN035
     FM181700 14005KT 6SM BR OVC015
     FM182000 15005KT P6SM OVC025=



000
FTUS43 KOAX 180938 AAA
TAFLNK
TAF AMD
KLNK 180938Z 1810/1906 11005KT P6SM OVC060
      TEMPO 1811/1814 3SM -SN OVC035
     FM181700 12005KT 6SM BR OVC015
     FM182000 18005KT P6SM OVC025=



000
FTUS43 KOAX 180938 AAA
TAFLNK
TAF AMD
KLNK 180938Z 1810/1906 11005KT P6SM OVC060
      TEMPO 1811/1814 3SM -SN OVC035
     FM181700 12005KT 6SM BR OVC015
     FM182000 18005KT P6SM OVC025=



000
FTUS43 KOAX 180520
TAFOMA
TAF
KOMA 180520Z 1806/1906 10005KT P6SM OVC070
      TEMPO 1810/1812 5SM -SN OVC035
     FM181200 11005KT 4SM -SN BR OVC025
      TEMPO 1812/1816 2SM -SN BR BKN012 OVC025
     FM181700 14005KT 6SM BR OVC015
     FM182000 15005KT P6SM OVC025=



000
FTUS43 KOAX 180520
TAFLNK
TAF
KLNK 180520Z 1806/1906 12005KT P6SM OVC050
      TEMPO 1807/1810 4SM -SN OVC030
     FM181000 VRB04KT 3SM -SN BR OVC025
      TEMPO 1810/1814 1SM -SN OVC010
     FM181400 09005KT 3SM -SN BR OVC009
     FM181700 12005KT 6SM BR OVC015
     FM182000 18005KT P6SM OVC025=



000
FTUS43 KOAX 180520
TAFLNK
TAF
KLNK 180520Z 1806/1906 12005KT P6SM OVC050
      TEMPO 1807/1810 4SM -SN OVC030
     FM181000 VRB04KT 3SM -SN BR OVC025
      TEMPO 1810/1814 1SM -SN OVC010
     FM181400 09005KT 3SM -SN BR OVC009
     FM181700 12005KT 6SM BR OVC015
     FM182000 18005KT P6SM OVC025=



000
FTUS43 KOAX 180520
TAFOMA
TAF
KOMA 180520Z 1806/1906 10005KT P6SM OVC070
      TEMPO 1810/1812 5SM -SN OVC035
     FM181200 11005KT 4SM -SN BR OVC025
      TEMPO 1812/1816 2SM -SN BR BKN012 OVC025
     FM181700 14005KT 6SM BR OVC015
     FM182000 15005KT P6SM OVC025=



000
FTUS43 KOAX 180520
TAFOFK
TAF
KOFK 180520Z 1806/1906 13005KT P6SM SCT015 OVC035
      TEMPO 1807/1809 4SM -SN
     FM180900 12005KT 4SM -SN BR OVC020
      TEMPO 1809/1813 1 1/2SM -SN BR OVC009
     FM181500 16005KT 3SM BR OVC015
     FM181900 19006KT P6SM OVC015=



000
FTUS43 KOAX 180520
TAFOFK
TAF
KOFK 180520Z 1806/1906 13005KT P6SM SCT015 OVC035
      TEMPO 1807/1809 4SM -SN
     FM180900 12005KT 4SM -SN BR OVC020
      TEMPO 1809/1813 1 1/2SM -SN BR OVC009
     FM181500 16005KT 3SM BR OVC015
     FM181900 19006KT P6SM OVC015=



000
FTUS43 KOAX 180433 AAB
TAFLNK
TAF AMD
KLNK 180433Z 1805/1824 12006KT P6SM OVC050
     FM180700 12005KT 6SM BR SCT012 OVC035
      TEMPO 1807/1809 4SM -SN OVC012
     FM180900 VRB04KT 3SM -SN BR OVC025
      TEMPO 1809/1813 1SM -SN OVC010
     FM181300 11004KT 2SM -SN BR OVC008
     FM181600 14005KT 4SM BR OVC009=



000
FTUS43 KOAX 180433 AAB
TAFLNK
TAF AMD
KLNK 180433Z 1805/1824 12006KT P6SM OVC050
     FM180700 12005KT 6SM BR SCT012 OVC035
      TEMPO 1807/1809 4SM -SN OVC012
     FM180900 VRB04KT 3SM -SN BR OVC025
      TEMPO 1809/1813 1SM -SN OVC010
     FM181300 11004KT 2SM -SN BR OVC008
     FM181600 14005KT 4SM BR OVC009=



000
FTUS43 KOAX 180421 AAB
TAFOMA
TAF AMD
KOMA 180421Z 1804/1824 09005KT P6SM OVC070
     FM180600 10005KT P6SM SCT015 OVC050
      TEMPO 1809/1812 4SM -SN BKN015 OVC030
     FM181200 11005KT 4SM -SN BR OVC015
      TEMPO 1812/1816 2SM -SN BR OVC009
     FM181800 12005KT 6SM BR OVC015=



000
FTUS43 KOAX 180421 AAB
TAFOMA
TAF AMD
KOMA 180421Z 1804/1824 09005KT P6SM OVC070
     FM180600 10005KT P6SM SCT015 OVC050
      TEMPO 1809/1812 4SM -SN BKN015 OVC030
     FM181200 11005KT 4SM -SN BR OVC015
      TEMPO 1812/1816 2SM -SN BR OVC009
     FM181800 12005KT 6SM BR OVC015=



000
FTUS43 KOAX 180306 AAA
TAFOFK
TAF AMD
KOFK 180306Z 1803/1824 12006KT P6SM SCT015 OVC050
     FM180500 13005KT P6SM SCT010 OVC035
      TEMPO 1806/1809 4SM -SN OVC010
     FM180900 12005KT 4SM BR OVC009
      TEMPO 1809/1813 2SM -SN BR OVC006
     FM181700 16005KT P6SM OVC015=



000
FTUS43 KOAX 180306 AAA
TAFOFK
TAF AMD
KOFK 180306Z 1803/1824 12006KT P6SM SCT015 OVC050
     FM180500 13005KT P6SM SCT010 OVC035
      TEMPO 1806/1809 4SM -SN OVC010
     FM180900 12005KT 4SM BR OVC009
      TEMPO 1809/1813 2SM -SN BR OVC006
     FM181700 16005KT P6SM OVC015=



000
FTUS43 KOAX 180305 AAA
TAFOMA
TAF AMD
KOMA 180305Z 1803/1824 01005KT P6SM OVC060
     FM180600 11003KT P6SM SCT015 OVC040
      TEMPO 1808/1812 4SM -SN OVC015
     FM181200 11005KT 4SM -SN BR OVC015
      TEMPO 1812/1815 2SM -SN BR OVC009
     FM181500 12005KT 4SM BR OVC009=



000
FTUS43 KOAX 180305 AAA
TAFOMA
TAF AMD
KOMA 180305Z 1803/1824 01005KT P6SM OVC060
     FM180600 11003KT P6SM SCT015 OVC040
      TEMPO 1808/1812 4SM -SN OVC015
     FM181200 11005KT 4SM -SN BR OVC015
      TEMPO 1812/1815 2SM -SN BR OVC009
     FM181500 12005KT 4SM BR OVC009=



000
FTUS43 KOAX 180304 AAA
TAFLNK
TAF AMD
KLNK 180304Z 1803/1824 12006KT P6SM OVC050
     FM180500 12005KT P6SM SCT012 OVC035
      TEMPO 1806/1809 4SM -SN OVC012
     FM180900 VRB04KT 3SM -SN BR OVC010
      TEMPO 1809/1813 1SM -SN OVC007
     FM181300 11004KT 2SM -SN BR OVC008
     FM181600 14005KT 4SM BR OVC009=



000
FTUS43 KOAX 180304 AAA
TAFLNK
TAF AMD
KLNK 180304Z 1803/1824 12006KT P6SM OVC050
     FM180500 12005KT P6SM SCT012 OVC035
      TEMPO 1806/1809 4SM -SN OVC012
     FM180900 VRB04KT 3SM -SN BR OVC010
      TEMPO 1809/1813 1SM -SN OVC007
     FM181300 11004KT 2SM -SN BR OVC008
     FM181600 14005KT 4SM BR OVC009=



000
FTUS43 KOAX 172320
TAFLNK
TAF
KLNK 172320Z 1800/1824 09006KT P6SM OVC050
     FM180300 10005KT P6SM SCT012 OVC035
      TEMPO 1805/1809 4SM -SN OVC012
     FM180900 VRB04KT 3SM -SN BR OVC010
      TEMPO 1809/1813 1SM -SN OVC007
     FM181300 11004KT 2SM -SN BR OVC008
     FM181600 14005KT 4SM BR OVC009=



000
FTUS43 KOAX 172320
TAFOFK
TAF
KOFK 172320Z 1800/1824 09004KT P6SM SCT015 OVC050
     FM180400 14004KT P6SM SCT012 OVC040
      TEMPO 1806/1809 BKN012
     FM180900 12005KT 4SM BR OVC009
      TEMPO 1809/1813 1 1/2SM BR OVC006
     FM181700 16005KT P6SM OVC015=



000
FTUS43 KOAX 172320
TAFOMA
TAF
KOMA 172320Z 1800/1824 01005KT P6SM OVC060
     FM180600 11003KT P6SM SCT015 OVC040
      TEMPO 1807/1811 4SM -SN OVC015
     FM181100 11005KT 4SM -SN BR OVC015
      TEMPO 1811/1815 1 1/2SM -SN BR OVC009
     FM181500 12005KT 4SM BR OVC009=



000
FTUS43 KOAX 172320
TAFLNK
TAF
KLNK 172320Z 1800/1824 09006KT P6SM OVC050
     FM180300 10005KT P6SM SCT012 OVC035
      TEMPO 1805/1809 4SM -SN OVC012
     FM180900 VRB04KT 3SM -SN BR OVC010
      TEMPO 1809/1813 1SM -SN OVC007
     FM181300 11004KT 2SM -SN BR OVC008
     FM181600 14005KT 4SM BR OVC009=



000
FTUS43 KOAX 171741
TAFOMA
TAF
KOMA 171741Z 1718/1818 01005KT P6SM BKN100
     FM180600 11003KT P6SM SCT015 OVC020
     FM181000 11005KT 4SM -SN BR OVC010
     FM181400 15004KT 3SM -SN BR OVC010=



000
FTUS43 KOAX 171741
TAFLNK
TAF
KLNK 171741Z 1718/1818 09006KT P6SM BKN150
     FM180600 10005KT P6SM SCT012 OVC040
      TEMPO 1808/1810 4SM -SN BKN012
     FM181000 12004KT 3SM -SN BR OVC010
     FM181400 11003KT 2SM -SN BR OVC008=



000
FTUS43 KOAX 171741
TAFOFK
TAF
KOFK 171741Z 1718/1818 09004KT P6SM SCT015 BKN120
     FM180400 14004KT P6SM SCT012 OVC040
     FM181200 14004KT P6SM OVC015=



000
FTUS43 KOAX 171741
TAFOMA
TAF
KOMA 171741Z 1718/1818 01005KT P6SM BKN100
     FM180600 11003KT P6SM SCT015 OVC020
     FM181000 11005KT 4SM -SN BR OVC010
     FM181400 15004KT 3SM -SN BR OVC010=



000
FTUS43 KOAX 171741
TAFLNK
TAF
KLNK 171741Z 1718/1818 09006KT P6SM BKN150
     FM180600 10005KT P6SM SCT012 OVC040
      TEMPO 1808/1810 4SM -SN BKN012
     FM181000 12004KT 3SM -SN BR OVC010
     FM181400 11003KT 2SM -SN BR OVC008=



000
FTUS43 KOAX 171741
TAFOFK
TAF
KOFK 171741Z 1718/1818 09004KT P6SM SCT015 BKN120
     FM180400 14004KT P6SM SCT012 OVC040
     FM181200 14004KT P6SM OVC015=



000
FTUS43 KOAX 171349 AAA
TAFOFK
TAF AMD
KOFK 171349Z 1714/1812 09004KT P6SM SCT015 BKN120
      TEMPO 1714/1717 BKN015
     FM180900 14006KT P6SM SCT012 OVC040=



000
FTUS43 KOAX 171349 AAA
TAFOFK
TAF AMD
KOFK 171349Z 1714/1812 09004KT P6SM SCT015 BKN120
      TEMPO 1714/1717 BKN015
     FM180900 14006KT P6SM SCT012 OVC040=



000
FTUS43 KOAX 171120
TAFOMA
TAF
KOMA 171120Z 1712/1812 01005KT P6SM SCT015 BKN150
     FM180800 11003KT P6SM SCT015 OVC050=



000
FTUS43 KOAX 171120
TAFOFK
TAF
KOFK 171120Z 1712/1812 08004KT P6SM SCT015 BKN120
     FM180900 14006KT P6SM SCT012 OVC040=



000
FTUS43 KOAX 171120
TAFLNK
TAF
KLNK 171120Z 1712/1812 09006KT P6SM SCT012 BKN150
      TEMPO 1712/1715 BKN012
     FM180800 10005KT P6SM SCT012 OVC040
      TEMPO 1810/1812 4SM -SN BKN012=



000
FTUS43 KOAX 171120
TAFLNK
TAF
KLNK 171120Z 1712/1812 09006KT P6SM SCT012 BKN150
      TEMPO 1712/1715 BKN012
     FM180800 10005KT P6SM SCT012 OVC040
      TEMPO 1810/1812 4SM -SN BKN012=



000
FTUS43 KOAX 171120
TAFOFK
TAF
KOFK 171120Z 1712/1812 08004KT P6SM SCT015 BKN120
     FM180900 14006KT P6SM SCT012 OVC040=



000
FTUS43 KOAX 171120
TAFOMA
TAF
KOMA 171120Z 1712/1812 01005KT P6SM SCT015 BKN150
     FM180800 11003KT P6SM SCT015 OVC050=



000
FTUS43 KOAX 170525
TAFLNK
TAF
KLNK 170525Z 1706/1806 36005KT P6SM OVC015
     FM171600 04003KT P6SM BKN100 OVC250
     FM172200 10006KT P6SM OVC100
     FM180300 10005KT P6SM OVC050=



000
FTUS43 KOAX 170525
TAFOMA
TAF
KOMA 170525Z 1706/1806 33010KT P6SM SCT150
     FM170800 35005KT P6SM OVC015
     FM171600 VRB03KT P6SM BKN100 OVC250
     FM180200 11003KT P6SM OVC080=



000
FTUS43 KOAX 170525
TAFOFK
TAF
KOFK 170525Z 1706/1806 35004KT P6SM OVC010
     FM171100 01003KT 5SM BR BKN015
     FM171500 08004KT P6SM OVC015
     FM172100 12006KT P6SM OVC100=



000
FTUS43 KOAX 170525
TAFOFK
TAF
KOFK 170525Z 1706/1806 35004KT P6SM OVC010
     FM171100 01003KT 5SM BR BKN015
     FM171500 08004KT P6SM OVC015
     FM172100 12006KT P6SM OVC100=



000
FTUS43 KOAX 170525
TAFOMA
TAF
KOMA 170525Z 1706/1806 33010KT P6SM SCT150
     FM170800 35005KT P6SM OVC015
     FM171600 VRB03KT P6SM BKN100 OVC250
     FM180200 11003KT P6SM OVC080=



000
FTUS43 KOAX 170525
TAFLNK
TAF
KLNK 170525Z 1706/1806 36005KT P6SM OVC015
     FM171600 04003KT P6SM BKN100 OVC250
     FM172200 10006KT P6SM OVC100
     FM180300 10005KT P6SM OVC050=



000
FTUS43 KOAX 170415 AAA
TAFLNK
TAF AMD
KLNK 170415Z 1704/1724 36005KT P6SM OVC015
     FM170900 01004KT P6SM OVC100
     FM171800 05005KT P6SM BKN120=



000
FTUS43 KOAX 170414 AAA
TAFOFK
TAF AMD
KOFK 170414Z 1704/1724 01003KT P6SM OVC010
     FM171200 01003KT P6SM BKN010
     FM171800 09004KT P6SM OVC050=



000
FTUS43 KOAX 170414 AAA
TAFOFK
TAF AMD
KOFK 170414Z 1704/1724 01003KT P6SM OVC010
     FM171200 01003KT P6SM BKN010
     FM171800 09004KT P6SM OVC050=



    US Dept of Commerce
    National Oceanic and Atmospheric Administration
    National Weather Service
    1325 East West Highway
    Silver Spring, MD 20910
    Page Author: NWS Internet Services Team
Disclaimer
Information Quality
Credits
Glossary
Privacy Policy
Freedom of Information Act (FOIA)
About Us
Career Opportunities